Time;durP1;ratioP1;P1;durP2;ratioP2;P2;SDS_P1;SDS_P2;PMS_P1;PMS_P2;Temp;Humidity;BMP_temperature;BMP_pressure;BME280_temperature;BME280_humidity;BME280_pressure;Samples;Min_cycle;Max_cycle;Signal;HPM_P1;HPM_P2
2022/10/19 00:00:14;;;;;;;3.40;1.27;;;;;;;4.42;100.00;102815.75;1027513;28;20309;-81
2022/10/19 00:00:46;;;;;;;3.10;1.00;;;;;;;4.46;100.00;102814.53;1023925;28;20314;-81
2022/10/19 00:01:20;;;;;;;3.55;1.05;;;;;;;4.43;100.00;102817.41;1023626;28;20314;-81
2022/10/19 00:01:51;;;;;;;1.88;1.08;;;;;;;4.43;100.00;102821.88;1020426;28;20296;-81
2022/10/19 00:02:23;;;;;;;4.57;0.73;;;;;;;4.44;100.00;102812.97;1023726;28;20295;-82
2022/10/19 00:02:54;;;;;;;4.25;1.35;;;;;;;4.38;100.00;102821.38;1027939;28;20357;-82
2022/10/19 00:03:27;;;;;;;3.67;1.30;;;;;;;4.34;100.00;102821.63;1028186;28;20350;-81
2022/10/19 00:03:59;;;;;;;3.95;1.80;;;;;;;4.34;100.00;102821.63;1026416;28;20877;-81
2022/10/19 00:04:35;;;;;;;2.45;1.35;;;;;;;4.33;100.00;102825.25;1027393;28;20293;-81
2022/10/19 00:05:07;;;;;;;5.75;1.70;;;;;;;4.34;100.00;102826.06;1025626;28;20302;-82
2022/10/19 00:05:39;;;;;;;4.72;1.20;;;;;;;4.31;100.00;102826.34;1027363;28;20504;-81
2022/10/19 00:06:24;;;;;;;3.92;1.10;;;;;;;4.26;100.00;102828.50;1023409;28;20311;-81
2022/10/19 00:06:56;;;;;;;1.65;1.13;;;;;;;4.18;100.00;102825.69;1021696;29;20314;-81
2022/10/19 00:07:28;;;;;;;6.53;1.23;;;;;;;4.14;100.00;102825.09;1022085;29;20789;-81
2022/10/19 00:08:00;;;;;;;7.35;1.67;;;;;;;4.13;100.00;102825.22;1018099;29;20344;-81
2022/10/19 00:08:32;;;;;;;2.80;0.90;;;;;;;4.11;100.00;102829.75;1021090;28;20319;-79
2022/10/19 00:09:08;;;;;;;2.00;1.15;;;;;;;4.12;100.00;102827.03;1020106;29;20343;-80
2022/10/19 00:09:43;;;;;;;2.97;1.05;;;;;;;4.15;100.00;102821.50;1022201;29;20300;-82
2022/10/19 00:10:15;;;;;;;2.45;1.00;;;;;;;4.11;100.00;102824.47;1019876;29;20307;-82
2022/10/19 00:10:47;;;;;;;5.00;1.25;;;;;;;4.11;100.00;102821.84;1020487;28;20874;-81
2022/10/19 00:11:19;;;;;;;1.75;1.38;;;;;;;4.15;100.00;102820.66;1021035;28;20407;-81
2022/10/19 00:11:51;;;;;;;1.88;1.35;;;;;;;4.09;100.00;102827.25;1028399;28;20298;-81
2022/10/19 00:12:23;;;;;;;4.20;2.35;;;;;;;4.08;100.00;102819.47;1027665;28;20788;-80
2022/10/19 00:12:57;;;;;;;16.75;1.67;;;;;;;4.12;100.00;102820.91;1020189;28;20308;-79
2022/10/19 00:13:29;;;;;;;7.90;1.52;;;;;;;4.10;100.00;102822.81;1023779;28;20295;-79
2022/10/19 00:14:01;;;;;;;5.68;1.60;;;;;;;4.08;100.00;102820.28;1024111;28;20809;-79
2022/10/19 00:14:32;;;;;;;4.70;1.27;;;;;;;4.09;100.00;102818.50;1024377;28;20310;-79
2022/10/19 00:15:05;;;;;;;1.13;0.90;;;;;;;4.07;100.00;102817.78;1027826;28;20286;-79
2022/10/19 00:15:39;;;;;;;3.63;1.38;;;;;;;4.04;100.00;102824.97;1027162;28;20305;-79
2022/10/19 00:16:12;;;;;;;10.38;1.05;;;;;;;4.08;100.00;102819.47;1028625;28;20308;-79
2022/10/19 00:16:45;;;;;;;6.78;1.45;;;;;;;4.16;100.00;102817.06;1031540;28;20800;-79
2022/10/19 00:17:20;;;;;;;6.55;2.33;;;;;;;4.14;100.00;102821.63;1028151;28;20309;-81
2022/10/19 00:17:51;;;;;;;2.95;1.65;;;;;;;4.21;100.00;102825.44;1024066;29;20298;-79
2022/10/19 00:18:23;;;;;;;2.28;1.40;;;;;;;4.14;100.00;102813.72;1025162;28;20306;-79
2022/10/19 00:18:58;;;;;;;3.95;1.83;;;;;;;4.16;100.00;102811.78;1032311;28;20294;-79
2022/10/19 00:19:30;;;;;;;5.18;1.38;;;;;;;4.20;100.00;102818.47;1031837;28;20301;-79
2022/10/19 00:20:01;;;;;;;5.18;1.30;;;;;;;4.16;100.00;102806.50;1025716;28;20297;-79
2022/10/19 00:20:35;;;;;;;16.80;2.08;;;;;;;4.19;100.00;102816.81;1023544;28;20388;-79
2022/10/19 00:21:08;;;;;;;2.35;1.25;;;;;;;4.07;100.00;102808.06;1023485;28;20328;-79
2022/10/19 00:21:40;;;;;;;2.25;1.20;;;;;;;4.09;100.00;102806.16;1025398;28;20305;-79
2022/10/19 00:22:11;;;;;;;9.15;1.90;;;;;;;4.04;100.00;102814.44;1026958;28;20309;-79
2022/10/19 00:22:49;;;;;;;7.15;1.40;;;;;;;4.05;100.00;102807.38;1023995;28;20442;-79
2022/10/19 00:23:21;;;;;;;3.40;1.42;;;;;;;4.03;100.00;102804.84;1027052;28;20665;-79
2022/10/19 00:23:53;;;;;;;9.25;1.42;;;;;;;4.05;100.00;102804.72;1028069;28;20295;-80
2022/10/19 00:24:24;;;;;;;1.42;1.33;;;;;;;4.05;100.00;102810.00;1028767;28;20293;-79
2022/10/19 00:24:56;;;;;;;8.93;1.75;;;;;;;4.06;100.00;102800.28;1031999;28;20308;-79
2022/10/19 00:25:28;;;;;;;2.80;1.55;;;;;;;3.99;100.00;102805.22;1031317;28;20297;-81
2022/10/19 00:25:59;;;;;;;4.05;1.42;;;;;;;3.97;100.00;102797.44;1021366;28;20773;-81
2022/10/19 00:26:31;;;;;;;3.05;1.52;;;;;;;3.90;100.00;102804.19;1027363;28;20914;-82
2022/10/19 00:27:03;;;;;;;20.40;2.15;;;;;;;3.95;100.00;102798.53;1028078;28;20833;-81
2022/10/19 00:27:36;;;;;;;7.22;1.20;;;;;;;3.90;100.00;102801.56;1028487;28;20313;-81
2022/10/19 00:28:07;;;;;;;3.03;1.35;;;;;;;3.93;100.00;102801.31;1035169;28;20307;-81
2022/10/19 00:28:40;;;;;;;7.45;2.00;;;;;;;3.94;100.00;102799.50;1032698;28;20298;-81
2022/10/19 00:29:12;;;;;;;2.08;1.80;;;;;;;4.00;100.00;102801.63;1028275;28;20809;-81
2022/10/19 00:29:44;;;;;;;6.95;1.45;;;;;;;4.06;100.00;102801.13;1027516;28;20298;-80
2022/10/19 00:30:16;;;;;;;2.55;1.48;;;;;;;4.08;100.00;102798.38;1028832;28;22135;-79
2022/10/19 00:30:48;;;;;;;5.85;1.80;;;;;;;4.09;100.00;102800.03;1030070;28;20306;-79
2022/10/19 00:31:24;;;;;;;3.60;1.58;;;;;;;4.05;100.00;102799.44;1036970;28;20311;-79
2022/10/19 00:31:56;;;;;;;3.80;1.60;;;;;;;4.01;100.00;102809.41;1027609;28;20306;-79
2022/10/19 00:32:28;;;;;;;2.63;1.38;;;;;;;4.01;100.00;102798.03;1022326;28;20287;-79
2022/10/19 00:32:59;;;;;;;2.25;1.05;;;;;;;4.05;100.00;102799.44;1019908;29;20294;-79
2022/10/19 00:33:31;;;;;;;4.65;1.80;;;;;;;4.00;100.00;102802.47;1019697;29;20798;-79
2022/10/19 00:34:03;;;;;;;1.90;1.55;;;;;;;4.01;100.00;102803.31;1023970;28;20816;-79
2022/10/19 00:34:34;;;;;;;2.22;1.25;;;;;;;3.97;100.00;102802.72;1028652;28;20298;-79
2022/10/19 00:35:13;;;;;;;2.83;1.35;;;;;;;4.00;100.00;102802.47;1031739;28;20657;-79
2022/10/19 00:35:47;;;;;;;4.88;1.73;;;;;;;3.98;100.00;102799.13;1031515;28;20285;-79
2022/10/19 00:36:23;;;;;;;2.50;1.17;;;;;;;3.97;100.00;102804.53;1027087;28;20314;-79
2022/10/19 00:36:54;;;;;;;4.40;2.03;;;;;;;4.03;100.00;102804.03;1023248;28;20310;-79
2022/10/19 00:37:26;;;;;;;3.10;1.48;;;;;;;3.96;100.00;102801.06;1023791;28;20657;-79
2022/10/19 00:37:58;;;;;;;3.55;1.30;;;;;;;3.95;100.00;102798.53;1020569;28;20291;-79
2022/10/19 00:38:29;;;;;;;2.97;1.42;;;;;;;3.94;100.00;102808.25;1022829;28;20403;-79
2022/10/19 00:39:02;;;;;;;5.25;1.33;;;;;;;3.90;100.00;102801.56;1023186;28;20303;-79
2022/10/19 00:39:34;;;;;;;1.55;1.40;;;;;;;3.95;100.00;102804.66;1020143;29;20446;-79
2022/10/19 00:40:06;;;;;;;3.85;1.95;;;;;;;3.93;100.00;102811.84;1024073;28;20366;-79
2022/10/19 00:40:38;;;;;;;2.50;1.67;;;;;;;3.94;100.00;102802.97;1028262;28;20645;-79
2022/10/19 00:41:10;;;;;;;1.90;1.48;;;;;;;3.94;100.00;102802.97;1028171;28;20298;-79
2022/10/19 00:41:44;;;;;;;4.18;1.90;;;;;;;3.93;100.00;102806.56;1034743;28;20300;-79
2022/10/19 00:42:15;;;;;;;2.85;1.77;;;;;;;3.83;100.00;102805.63;1035025;28;20566;-79
2022/10/19 00:42:53;;;;;;;8.23;1.90;;;;;;;3.78;100.00;102802.53;1031696;28;20340;-79
2022/10/19 00:43:27;;;;;;;2.25;1.40;;;;;;;3.78;100.00;102802.53;1027267;28;20294;-79
2022/10/19 00:44:26;;;;;;;2.75;1.13;;;;;;;3.81;100.00;102806.72;1021035;29;20426;-79
2022/10/19 00:45:01;;;;;;;5.97;2.08;;;;;;;3.77;100.00;102805.28;1023750;28;21756;-79
2022/10/19 00:45:32;;;;;;;2.22;1.58;;;;;;;3.77;100.00;102811.41;1022953;28;20820;-79
2022/10/19 00:46:04;;;;;;;2.63;1.63;;;;;;;3.76;100.00;102808.88;1031172;28;20423;-79
2022/10/19 00:46:47;;;;;;;2.55;1.50;;;;;;;3.79;100.00;102803.38;1032592;28;20305;-81
2022/10/19 00:47:22;;;;;;;4.00;1.30;;;;;;;3.82;100.00;102798.69;1029596;28;20294;-82
2022/10/19 00:48:01;;;;;;;3.50;1.83;;;;;;;3.82;100.00;102803.94;1028167;28;20320;-79
2022/10/19 00:48:32;;;;;;;9.13;2.13;;;;;;;3.78;100.00;102802.53;1023496;28;20302;-79
2022/10/19 00:49:10;;;;;;;2.45;2.10;;;;;;;3.79;100.00;102804.19;1027678;28;20314;-79
2022/10/19 00:49:44;;;;;;;4.57;1.73;;;;;;;3.81;100.00;102797.00;1025328;28;20373;-79
2022/10/19 00:50:23;;;;;;;;;;;;;;;3.84;100.00;102799.41;1028782;28;20849;-81
2022/10/19 00:50:57;;;;;;;3.70;1.92;;;;;;;3.88;100.00;102800.84;1025364;28;19986;-81
2022/10/19 00:51:31;;;;;;;2.78;1.40;;;;;;;3.80;100.00;102797.97;1024943;28;20309;-81
2022/10/19 00:52:09;;;;;;;3.88;1.75;;;;;;;3.72;100.00;102801.22;1023455;28;20647;-82
2022/10/19 00:52:41;;;;;;;5.22;1.98;;;;;;;3.71;100.00;102801.34;1019347;29;20306;-81
2022/10/19 00:53:13;;;;;;;6.07;1.48;;;;;;;3.71;100.00;102801.34;1024774;28;20855;-82
2022/10/19 00:53:45;;;;;;;3.30;1.90;;;;;;;3.69;100.00;102798.00;1025485;28;20314;-82
2022/10/19 00:54:17;;;;;;;11.80;1.80;;;;;;;3.64;100.00;102793.09;1027049;28;20332;-81
2022/10/19 00:54:49;;;;;;;1.80;1.33;;;;;;;3.69;100.00;102792.75;1024063;28;20302;-82
2022/10/19 00:55:21;;;;;;;4.45;1.48;;;;;;;3.66;100.00;102793.00;1024237;28;20330;-81
2022/10/19 00:55:53;;;;;;;4.63;1.80;;;;;;;3.63;100.00;102793.22;1021301;29;20343;-81
2022/10/19 00:56:25;;;;;;;10.90;2.08;;;;;;;3.63;100.00;102794.06;1017476;29;20711;-81
2022/10/19 00:56:56;;;;;;;1.70;1.50;;;;;;;3.63;100.00;102796.72;1012822;29;20353;-81
2022/10/19 00:57:29;;;;;;;5.65;1.65;;;;;;;3.65;100.00;102797.41;1012600;29;20799;-81
2022/10/19 00:58:01;;;;;;;2.05;1.70;;;;;;;3.68;100.00;102791.06;1015712;29;20375;-81
2022/10/19 00:58:33;;;;;;;4.55;1.50;;;;;;;3.72;100.00;102792.50;1015480;29;20310;-81
2022/10/19 00:59:05;;;;;;;3.78;1.52;;;;;;;3.78;100.00;102789.34;1019840;29;20306;-82
2022/10/19 00:59:39;;;;;;;2.00;1.40;;;;;;;3.79;100.00;102787.56;1020077;28;20822;-81
2022/10/19 01:00:10;;;;;;;6.57;2.10;;;;;;;3.81;100.00;102789.09;1020713;29;20311;-81
2022/10/19 01:00:42;;;;;;;3.20;2.45;;;;;;;3.86;100.00;102788.75;1023131;28;20314;-82
2022/10/19 01:01:19;;;;;;;2.20;1.42;;;;;;;3.84;100.00;102788.03;1023344;28;20338;-81
2022/10/19 01:01:52;;;;;;;4.00;1.95;;;;;;;3.81;100.00;102783.00;1024683;28;20786;-81
2022/10/19 01:02:23;;;;;;;2.45;1.30;;;;;;;3.82;100.00;102788.13;1023169;28;20343;-81
2022/10/19 01:02:55;;;;;;;5.25;1.65;;;;;;;3.72;100.00;102789.84;1023894;28;20306;-81
2022/10/19 01:03:27;;;;;;;5.63;1.77;;;;;;;3.69;100.00;102788.31;1026875;28;20305;-81
2022/10/19 01:03:59;;;;;;;3.20;1.52;;;;;;;3.75;100.00;102786.13;1023393;28;20811;-82
2022/10/19 01:04:33;;;;;;;2.00;1.80;;;;;;;3.77;100.00;102785.03;1024705;28;20370;-81
2022/10/19 01:05:05;;;;;;;6.32;2.38;;;;;;;3.81;100.00;102789.09;1026780;28;20725;-81
2022/10/19 01:05:37;;;;;;;4.32;1.40;;;;;;;3.83;100.00;102784.53;1028300;28;20345;-81
2022/10/19 01:06:09;;;;;;;3.83;1.20;;;;;;;3.72;100.00;102781.94;1032207;28;20333;-81
2022/10/19 01:06:41;;;;;;;4.57;1.63;;;;;;;3.60;100.00;102782.94;1031231;28;20332;-81
2022/10/19 01:07:13;;;;;;;4.53;1.70;;;;;;;3.57;100.00;102788.47;1031568;28;20325;-81
2022/10/19 01:07:44;;;;;;;3.40;1.65;;;;;;;3.59;100.00;102791.81;1027102;28;20298;-81
2022/10/19 01:08:16;;;;;;;3.28;1.58;;;;;;;3.61;100.00;102780.19;1023123;29;20295;-81
2022/10/19 01:08:48;;;;;;;2.13;1.55;;;;;;;3.48;100.00;102783.91;1019565;29;20428;-82
2022/10/19 01:09:20;;;;;;;1.75;1.33;;;;;;;3.47;100.00;102782.22;1015681;29;20299;-81
2022/10/19 01:09:52;;;;;;;3.00;1.45;;;;;;;3.47;100.00;102783.06;1016772;29;20403;-79
2022/10/19 01:10:34;;;;;;;2.65;1.67;;;;;;;3.56;100.00;102786.75;1019858;28;20798;-79
2022/10/19 01:11:24;;;;;;;3.03;1.90;;;;;;;3.58;100.00;102785.69;1025219;28;20348;-79
2022/10/19 01:12:10;;;;;;;2.45;1.15;;;;;;;3.58;100.00;102785.69;1033967;28;20733;-80
2022/10/19 01:13:24;;;;;;;2.20;1.23;;;;;;;3.62;100.00;102778.38;1034841;28;20340;-79
2022/10/19 01:14:04;;;;;;;3.22;1.02;;;;;;;3.62;100.00;102786.28;1030285;28;20305;-80
2022/10/19 01:15:16;;;;;;;3.10;2.25;;;;;;;3.51;100.00;102778.38;1031359;28;20305;-80
2022/10/19 01:16:00;;;;;;;1.30;1.05;;;;;;;3.52;100.00;102780.06;1025980;28;20043;-79
2022/10/19 01:16:56;;;;;;;1.60;1.08;;;;;;;3.60;100.00;102777.66;1023091;28;20075;-80
2022/10/19 01:17:33;;;;;;;4.72;1.83;;;;;;;3.56;100.00;102782.34;1024657;28;20389;-81
2022/10/19 01:18:09;;;;;;;2.03;1.40;;;;;;;3.54;100.00;102778.13;1028021;28;20661;-80
2022/10/19 01:19:02;;;;;;;3.30;1.50;;;;;;;3.49;100.00;102780.31;1031962;28;20336;-80
2022/10/19 01:20:04;;;;;;;6.47;1.92;;;;;;;3.44;100.00;102783.31;1027922;28;20290;-82
2022/10/19 01:20:48;;;;;;;;;;;;;;;3.52;100.00;102780.91;1033621;28;20782;-82
2022/10/19 01:21:25;;;;;;;5.55;1.00;;;;;;;3.42;100.00;102775.53;1033223;28;19946;-82
2022/10/19 01:22:20;;;;;;;4.35;1.52;;;;;;;3.44;100.00;102780.69;1035202;28;20706;-82
2022/10/19 01:23:14;;;;;;;3.80;0.82;;;;;;;3.48;100.00;102776.00;1034838;28;20357;-81
2022/10/19 01:23:51;;;;;;;5.25;1.63;;;;;;;3.45;100.00;102781.53;1036367;28;20304;-80
2022/10/19 01:24:32;;;;;;;2.95;1.02;;;;;;;3.49;100.00;102781.16;1035423;28;20376;-79
2022/10/19 01:25:21;;;;;;;1.65;1.17;;;;;;;3.47;100.00;102782.22;1031238;28;20711;-79
2022/10/19 01:26:15;;;;;;;2.85;1.35;;;;;;;3.38;100.00;102779.38;1029872;28;20681;-79
2022/10/19 01:26:55;;;;;;;9.55;1.30;;;;;;;3.35;100.00;102784.88;1020652;28;20311;-80
2022/10/19 01:28:00;;;;;;;6.72;1.08;;;;;;;3.53;100.00;102782.56;1027990;28;20305;-79
2022/10/19 01:29:03;;;;;;;1.95;1.50;;;;;;;3.58;100.00;102785.69;1031333;28;20090;-80
2022/10/19 01:29:58;;;;;;;4.55;1.13;;;;;;;3.41;100.00;102789.66;1031389;28;20308;-79
2022/10/19 01:30:30;;;;;;;1.30;1.02;;;;;;;3.35;100.00;102784.88;1031395;28;20420;-80
2022/10/19 01:31:14;;;;;;;3.33;1.48;;;;;;;3.38;100.00;102783.81;1031202;28;20305;-79
2022/10/19 01:31:59;;;;;;;5.72;1.45;;;;;;;3.39;100.00;102786.31;1031367;28;20308;-80
2022/10/19 01:32:36;;;;;;;5.95;2.08;;;;;;;3.41;100.00;102788.81;1031033;28;20794;-80
2022/10/19 01:33:23;;;;;;;6.25;2.13;;;;;;;3.40;100.00;102788.00;1031912;28;20735;-80
2022/10/19 01:34:08;;;;;;;2.33;1.40;;;;;;;3.40;100.00;102788.00;1031889;28;20309;-82
2022/10/19 01:34:46;;;;;;;6.25;1.13;;;;;;;3.40;100.00;102781.88;1035558;28;20339;-82
2022/10/19 01:35:23;;;;;;;2.65;1.52;;;;;;;3.33;100.00;102780.69;1031629;28;20320;-82
2022/10/19 01:36:04;;;;;;;1.48;1.13;;;;;;;3.31;100.00;102787.88;1031507;28;20455;-82
2022/10/19 01:36:47;;;;;;;1.83;1.48;;;;;;;3.40;100.00;102781.88;1031068;28;20407;-82
2022/10/19 01:37:34;;;;;;;1.98;1.65;;;;;;;3.40;100.00;102777.44;1034973;28;20042;-82
2022/10/19 01:38:11;;;;;;;5.70;1.55;;;;;;;3.37;100.00;102782.97;1032012;28;20301;-82
2022/10/19 01:39:15;;;;;;;1.80;1.70;;;;;;;3.33;100.00;102783.34;1031809;28;20345;-80
2022/10/19 01:40:01;;;;;;;1.33;1.23;;;;;;;3.42;100.00;102782.59;1031865;28;20653;-82
2022/10/19 01:40:56;;;;;;;3.35;2.20;;;;;;;3.30;100.00;102787.06;1030512;28;20815;-82
2022/10/19 01:41:35;;;;;;;5.57;1.70;;;;;;;3.28;100.00;102791.56;1031643;28;20375;-80
2022/10/19 01:42:25;;;;;;;4.28;1.40;;;;;;;3.24;100.00;102791.94;1031069;28;20309;-80
2022/10/19 01:43:10;;;;;;;1.83;1.42;;;;;;;3.16;100.00;102794.34;1031183;28;20372;-80
2022/10/19 01:43:50;;;;;;;5.00;1.30;;;;;;;3.21;100.00;102797.44;1031143;28;20356;-79
2022/10/19 01:44:28;;;;;;;6.53;3.42;;;;;;;3.32;100.00;102786.94;1031167;28;20820;-80
2022/10/19 01:45:05;;;;;;;5.55;2.58;;;;;;;3.35;100.00;102791.97;1022718;28;20080;-80
2022/10/19 01:45:51;;;;;;;4.55;1.73;;;;;;;3.41;100.00;102789.66;1023127;29;20299;-80
2022/10/19 01:46:27;;;;;;;2.33;1.27;;;;;;;3.41;100.00;102789.66;1024174;28;20450;-80
2022/10/19 01:47:03;;;;;;;2.60;2.00;;;;;;;3.41;100.00;102787.03;1021769;28;20658;-81
2022/10/19 01:47:46;;;;;;;3.90;2.60;;;;;;;3.45;100.00;102784.16;1027861;28;20453;-82
2022/10/19 01:48:21;;;;;;;5.95;2.10;;;;;;;3.48;100.00;102786.53;1021875;28;20306;-81
2022/10/19 01:48:57;;;;;;;10.65;2.88;;;;;;;3.51;100.00;102781.03;1023534;28;20050;-80
2022/10/19 01:49:36;;;;;;;2.92;1.60;;;;;;;3.52;100.00;102780.06;1023362;28;20303;-80
2022/10/19 01:50:12;;;;;;;8.23;2.25;;;;;;;3.43;100.00;102779.00;1029234;28;20295;-80
2022/10/19 01:50:58;;;;;;;3.75;1.85;;;;;;;3.50;100.00;102781.97;1029674;28;20357;-79
2022/10/19 01:51:32;;;;;;;6.75;1.92;;;;;;;3.46;100.00;102781.41;1021875;28;20380;-80
2022/10/19 01:52:06;;;;;;;4.65;1.83;;;;;;;3.47;100.00;102776.97;1019224;29;20295;-79
2022/10/19 01:52:39;;;;;;;5.35;1.80;;;;;;;3.47;100.00;102782.22;1018227;29;20291;-80
2022/10/19 01:53:11;;;;;;;7.50;1.88;;;;;;;3.34;100.00;102782.38;1017987;28;20704;-80
2022/10/19 01:53:48;;;;;;;7.60;1.77;;;;;;;3.31;100.00;102782.63;1015941;29;20335;-79
2022/10/19 01:54:20;;;;;;;7.35;1.92;;;;;;;3.28;100.00;102775.78;1023121;28;20311;-80
2022/10/19 01:54:55;;;;;;;2.53;1.55;;;;;;;3.34;100.00;102777.94;1024760;28;20327;-79
2022/10/19 01:55:27;;;;;;;7.38;1.75;;;;;;;3.36;100.00;102776.03;1024848;28;20309;-79
2022/10/19 01:56:00;;;;;;;8.02;2.00;;;;;;;3.37;100.00;102775.06;1020082;28;20884;-80
2022/10/19 01:56:33;;;;;;;3.67;2.47;;;;;;;3.40;100.00;102782.72;1018952;29;20348;-80
2022/10/19 01:57:06;;;;;;;2.17;1.77;;;;;;;3.41;100.00;102778.28;1017682;29;20308;-80
2022/10/19 01:57:50;;;;;;;5.03;1.83;;;;;;;3.40;100.00;102776.63;1020968;29;20307;-80
2022/10/19 01:58:30;;;;;;;7.13;2.22;;;;;;;3.37;100.00;102775.06;1029771;28;20294;-82
2022/10/19 01:59:04;;;;;;;6.85;2.30;;;;;;;3.36;100.00;102770.75;1027238;28;21343;-82
2022/10/19 01:59:36;;;;;;;2.72;1.95;;;;;;;3.38;100.00;102773.28;1026750;28;20306;-82
2022/10/19 02:00:10;;;;;;;8.57;1.90;;;;;;;3.42;100.00;102770.25;1020911;29;20303;-82
2022/10/19 02:00:46;;;;;;;5.18;1.80;;;;;;;3.45;100.00;102768.34;1019904;29;20299;-80
2022/10/19 02:01:18;;;;;;;3.97;1.50;;;;;;;3.47;100.00;102766.44;1016784;29;20306;-80
2022/10/19 02:01:53;;;;;;;6.75;1.58;;;;;;;3.45;100.00;102765.72;1022380;28;21939;-79
2022/10/19 02:02:26;;;;;;;3.63;2.15;;;;;;;3.32;100.00;102768.50;1025112;28;20666;-80
2022/10/19 02:02:59;;;;;;;6.68;2.33;;;;;;;3.33;100.00;102765.75;1023202;28;20378;-80
2022/10/19 02:03:33;;;;;;;2.22;1.50;;;;;;;3.26;100.00;102764.53;1020174;28;20303;-80
2022/10/19 02:04:04;;;;;;;2.70;1.92;;;;;;;3.25;100.00;102762.84;1020278;28;20334;-79
2022/10/19 02:04:36;;;;;;;9.57;1.98;;;;;;;3.23;100.00;102762.13;1015508;29;20308;-80
2022/10/19 02:05:10;;;;;;;3.20;1.67;;;;;;;3.18;100.00;102761.66;1014959;29;20316;-80
2022/10/19 02:05:43;;;;;;;4.50;2.13;;;;;;;3.15;100.00;102758.44;1018491;29;20291;-82
2022/10/19 02:06:22;;;;;;;10.63;2.20;;;;;;;3.14;100.00;102762.88;1026845;28;20665;-82
2022/10/19 02:06:54;;;;;;;10.88;2.55;;;;;;;3.21;100.00;102756.16;1029522;28;20094;-82
2022/10/19 02:07:26;;;;;;;4.43;2.70;;;;;;;3.19;100.00;102759.88;1024737;28;20738;-81
2022/10/19 02:08:05;;;;;;;7.68;1.77;;;;;;;3.15;100.00;102761.91;1022417;29;20302;-82
2022/10/19 02:08:45;;;;;;;5.25;2.22;;;;;;;3.14;100.00;102760.25;1019943;29;20304;-81
2022/10/19 02:09:17;;;;;;;5.30;2.50;;;;;;;3.18;100.00;102761.66;1020531;29;20810;-80
2022/10/19 02:09:49;;;;;;;9.13;1.92;;;;;;;3.22;100.00;102762.25;1020076;29;20318;-81
2022/10/19 02:10:20;;;;;;;4.45;2.25;;;;;;;3.23;100.00;102764.78;1017682;29;20394;-82
2022/10/19 02:10:53;;;;;;;4.45;2.05;;;;;;;3.23;100.00;102772.66;1020093;28;20311;-82
2022/10/19 02:11:25;;;;;;;10.32;3.05;;;;;;;3.17;100.00;102762.63;1019625;28;20307;-81
2022/10/19 02:12:00;;;;;;;4.25;2.20;;;;;;;3.16;100.00;102763.59;1020188;29;20298;-82
2022/10/19 02:12:32;;;;;;;4.78;1.85;;;;;;;3.19;100.00;102762.50;1021959;28;20287;-81
2022/10/19 02:13:04;;;;;;;4.13;2.55;;;;;;;3.21;100.00;102760.59;1020447;28;20722;-82
2022/10/19 02:13:38;;;;;;;6.78;2.45;;;;;;;3.20;100.00;102756.28;1024430;28;20306;-82
2022/10/19 02:14:12;;;;;;;6.88;2.80;;;;;;;3.17;100.00;102762.63;1027130;28;20685;-81
2022/10/19 02:14:46;;;;;;;6.93;2.60;;;;;;;3.22;100.00;102757.00;1023966;28;21506;-82
2022/10/19 02:15:20;;;;;;;8.40;2.65;;;;;;;3.21;100.00;102766.69;1030991;28;20316;-82
2022/10/19 02:15:53;;;;;;;5.53;2.03;;;;;;;3.19;100.00;102763.34;1028450;28;20316;-81
2022/10/19 02:16:29;;;;;;;9.70;3.15;;;;;;;3.19;100.00;102763.34;1023206;28;20306;-82
2022/10/19 02:17:07;;;;;;;6.90;2.97;;;;;;;3.17;100.00;102762.63;1021310;29;20322;-81
2022/10/19 02:17:45;;;;;;;4.13;2.47;;;;;;;3.16;100.00;102762.75;1019506;29;20382;-82
2022/10/19 02:18:27;;;;;;;3.60;2.10;;;;;;;3.19;100.00;102762.50;1021733;29;20311;-82
2022/10/19 02:18:59;;;;;;;2.35;1.88;;;;;;;3.20;100.00;102764.19;1022854;29;20298;-82
2022/10/19 02:19:31;;;;;;;5.80;2.90;;;;;;;3.26;100.00;102761.88;1024912;28;20855;-82
2022/10/19 02:20:03;;;;;;;3.85;1.90;;;;;;;3.25;100.00;102757.59;1027660;28;20353;-81
2022/10/19 02:20:36;;;;;;;5.07;2.00;;;;;;;3.22;100.00;102763.09;1024035;28;20729;-81
2022/10/19 02:21:08;;;;;;;3.38;1.83;;;;;;;3.25;100.00;102768.13;1028504;28;20743;-81
2022/10/19 02:21:39;;;;;;;7.82;2.47;;;;;;;3.28;100.00;102765.25;1032231;28;20313;-82
2022/10/19 02:22:12;;;;;;;5.82;2.20;;;;;;;3.24;100.00;102766.44;1031267;28;20305;-81
2022/10/19 02:22:44;;;;;;;5.90;1.88;;;;;;;3.22;100.00;102763.09;1027283;28;20309;-81
2022/10/19 02:23:18;;;;;;;7.97;2.03;;;;;;;3.24;100.00;102768.25;1027085;28;20390;-82
2022/10/19 02:23:49;;;;;;;2.25;1.77;;;;;;;3.19;100.00;102760.72;1030073;28;20625;-81
2022/10/19 02:24:24;;;;;;;2.55;1.70;;;;;;;3.27;100.00;102760.94;1029856;28;20340;-81
2022/10/19 02:24:56;;;;;;;6.20;2.63;;;;;;;3.29;100.00;102763.47;1028776;28;20783;-82
2022/10/19 02:25:27;;;;;;;5.93;2.20;;;;;;;3.32;100.00;102760.59;1026131;28;20294;-81
2022/10/19 02:25:59;;;;;;;3.53;2.15;;;;;;;3.26;100.00;102761.88;1026673;28;20297;-81
2022/10/19 02:26:31;;;;;;;8.38;1.85;;;;;;;3.15;100.00;102764.53;1031928;28;20293;-81
2022/10/19 02:27:04;;;;;;;4.95;2.30;;;;;;;3.21;100.00;102753.53;1027266;28;20290;-80
2022/10/19 02:27:39;;;;;;;4.55;2.08;;;;;;;3.16;100.00;102753.06;1027546;28;20301;-80
2022/10/19 02:28:10;;;;;;;3.58;1.88;;;;;;;3.24;100.00;102760.34;1027872;28;20338;-80
2022/10/19 02:28:42;;;;;;;2.38;2.17;;;;;;;3.28;100.00;102759.97;1028392;28;20353;-79
2022/10/19 02:29:14;;;;;;;8.40;4.05;;;;;;;3.36;100.00;102759.38;1027643;28;20708;-80
2022/10/19 02:29:45;;;;;;;2.42;1.98;;;;;;;3.38;100.00;102754.84;1026942;28;20700;-79
2022/10/19 02:30:18;;;;;;;3.17;2.38;;;;;;;3.40;100.00;102755.53;1027547;28;20329;-80
2022/10/19 02:30:53;;;;;;;9.07;2.30;;;;;;;3.25;100.00;102756.75;1032480;28;20325;-80
2022/10/19 02:31:25;;;;;;;2.78;2.08;;;;;;;3.25;100.00;102752.31;1028029;28;20366;-82
2022/10/19 02:31:56;;;;;;;7.00;2.08;;;;;;;3.17;100.00;102754.72;1027543;28;21410;-80
2022/10/19 02:32:28;;;;;;;3.33;2.20;;;;;;;3.15;100.00;102755.81;1024048;29;20323;-81
2022/10/19 02:32:59;;;;;;;2.28;1.90;;;;;;;3.17;100.00;102754.72;1024119;28;20306;-82
2022/10/19 02:33:31;;;;;;;3.80;1.95;;;;;;;3.17;100.00;102757.34;1027213;28;20301;-81
2022/10/19 02:34:03;;;;;;;4.22;2.40;;;;;;;3.20;100.00;102753.66;1027721;28;20294;-81
2022/10/19 02:34:35;;;;;;;5.35;2.08;;;;;;;3.24;100.00;102761.19;1026856;28;20788;-81
2022/10/19 02:35:07;;;;;;;9.02;2.15;;;;;;;3.14;100.00;102759.41;1023603;28;20995;-82
2022/10/19 02:35:39;;;;;;;2.20;2.00;;;;;;;3.19;100.00;102755.44;1022708;28;20376;-81
2022/10/19 02:36:10;;;;;;;9.30;2.17;;;;;;;3.18;100.00;102766.94;1023602;28;20672;-81
2022/10/19 02:36:42;;;;;;;3.22;2.08;;;;;;;3.17;100.00;102761.78;1025234;28;20800;-82
2022/10/19 02:37:13;;;;;;;3.05;1.95;;;;;;;3.18;100.00;102753.75;1026796;28;20298;-82
2022/10/19 02:37:45;;;;;;;2.03;1.80;;;;;;;3.20;100.00;102765.00;1030021;28;20379;-81
2022/10/19 02:38:20;;;;;;;1.95;1.73;;;;;;;3.20;100.00;102759.75;1030971;28;20301;-82
2022/10/19 02:38:52;;;;;;;2.42;1.83;;;;;;;3.15;100.00;102761.91;1031374;28;20293;-81
2022/10/19 02:39:24;;;;;;;2.45;2.25;;;;;;;3.05;100.00;102760.97;1031176;28;20293;-81
2022/10/19 02:39:56;;;;;;;7.43;2.13;;;;;;;2.99;100.00;102761.41;1033037;28;20441;-81
2022/10/19 02:40:32;;;;;;;3.22;1.83;;;;;;;3.13;100.00;102757.72;1033205;28;20364;-81
2022/10/19 02:41:19;;;;;;;2.78;1.80;;;;;;;3.23;100.00;102764.78;1032269;28;20297;-80
2022/10/19 02:41:55;;;;;;;6.55;1.75;;;;;;;3.27;100.00;102762.72;1027272;28;20298;-81
2022/10/19 02:42:32;;;;;;;8.25;1.92;;;;;;;3.13;100.00;102758.56;1027049;28;20309;-81
2022/10/19 02:43:08;;;;;;;5.78;1.85;;;;;;;3.21;100.00;102761.41;1030444;28;20312;-82
2022/10/19 02:43:41;;;;;;;2.75;2.00;;;;;;;3.22;100.00;102763.09;1026616;28;20306;-81
2022/10/19 02:44:40;;;;;;;2.60;2.22;;;;;;;3.22;100.00;102757.81;1025318;28;20643;-82
2022/10/19 02:45:18;;;;;;;6.03;2.50;;;;;;;3.15;100.00;102756.66;1018702;28;20381;-81
2022/10/19 02:45:55;;;;;;;2.47;1.50;;;;;;;3.04;100.00;102754.88;1024462;28;20415;-81
2022/10/19 02:46:51;;;;;;;3.05;2.00;;;;;;;3.07;100.00;102749.34;1027310;28;20301;-82